This is the latest recevied weather packets stored in our database for station/object AD4WX-13. If no packets are shown the sender has not sent any weather packets the latest 10 day(s).
| Time | Temp. | Humidity | Pressure | Rain* | Wind** | Luminosity | Snow |
|---|---|---|---|---|---|---|---|
| 1777345153 | 26.11° C | 70% | 1009.1 hPa | 0 mm | - | 0 W/m² | - |
| 1777338375 | 25.56° C | 70% | 1008.5 hPa | 0 mm | - | 0 W/m² | - |
| 1777337759 | 25.56° C | 69% | 1008.3 hPa | 0 mm | - | 0 W/m² | - |
| 1777336541 | 26.11° C | 68% | 1008.4 hPa | 0 mm | - | 0 W/m² | - |
| 1777334072 | 26.67° C | 67% | 1008.3 hPa | 0 mm | - | 28 W/m² | - |
| 1777331636 | 26.67° C | 67% | 1008.2 hPa | 0 mm | - | 44 W/m² | - |
| 1777327119 | 27.22° C | 64% | 1008.3 hPa | 0 mm | - | 211 W/m² | - |
| 1777321599 | 27.78° C | 62% | 1008.6 hPa | 0 mm | - | 392 W/m² | - |
| 1777318470 | 27.22° C | 62% | 1009.6 hPa | 0 mm | - | 118 W/m² | - |
| 1777314111 | 26.67° C | 64% | 1010.3 hPa | 0 mm | - | 237 W/m² | - |
| 1777311581 | 26.67° C | 60% | 1010.8 hPa | 0 mm | - | 257 W/m² | - |
| 1777308569 | 26.67° C | 60% | 1010.7 hPa | 0 mm | - | 454 W/m² | - |
| 1777306079 | 26.67° C | 60% | 1011.1 hPa | 0 mm | - | 817 W/m² | - |
| 1777296150 | 20.56° C | 78% | 1012.3 hPa | 0 mm | - | 137 W/m² | - |
| 1777291241 | 17.78° C | 87% | 1011.7 hPa | 0 mm | - | 65 W/m² | - |
| 1777288826 | 15.56° C | 90% | 1011.2 hPa | 0 mm | - | 19 W/m² | - |
| 1777287671 | 15.56° C | 90% | 1011 hPa | 0 mm | - | 0 W/m² | - |
| 1777281329 | 15° C | 89% | 1010.6 hPa | 0 mm | - | 0 W/m² | - |
| 1777280742 | 15° C | 89% | 1010.7 hPa | 0 mm | - | 0 W/m² | - |
| 1777279561 | 15° C | 88% | 1010.7 hPa | 0 mm | - | 0 W/m² | - |
| 1777275671 | 15° C | 87% | 1010.7 hPa | 0 mm | - | 0 W/m² | - |
| 1777268914 | 15° C | 86% | 1011.2 hPa | 0 mm | - | 0 W/m² | - |
| 1777267721 | 15° C | 86% | 1011.3 hPa | 0 mm | - | 0 W/m² | - |
| 1777264637 | 15.56° C | 86% | 1010.7 hPa | 0 mm | - | 0 W/m² | - |
| 1777262223 | 16.11° C | 85% | 1010.9 hPa | 0 mm | - | 0 W/m² | - |
* Rain latest hour (hover to see other rain measurements)
** Current wind speed in m/s (hover to see current wind gust speed)